Pentagon, DC (20301)

1:31 AM EDT on September 02, 2015 (GMT -0400)
H Street Corridor - NoMa | | Change Station
CLOSE
Current Station
Personal Weather Station
Location: Washington, DC
Elevation: 56 ft
Nearby Weather Stations

Elev 56 ft 38.90 °N, 77.00 °W | Updated 13 seconds ago

Mostly Cloudy
Mostly Cloudy
80.2 °F
Feels Like 84 °F
N
2.0
Wind Variable Wind from NE
Gusts 2.0 mph

Today
High -- | Low -- °F
--% Chance of Precip.
Yesterday
High -- | Low -- °F
Precip. -- in
6:37 AM 7:37 PM
Waning Gibbous, 83% visible
Pressure 30.05 in
Visibility 10.0 miles
Clouds Mostly Cloudy 8000 ft
Overcast 25000 ft
Heat Index 84 °F
Dew Point 71 °F
Humidity 74%
Rainfall 0.00 in
Snow Depth Not available.
UV 0 out of 12
Pollen 10.60 out of 12
Air Quality Not available.
Flu Activity Not available.
METAR KDCA 020452Z 00000KT 10SM BKN080 OVC250 26/23 A3005 RMK AO2 SLP175 T02610228 403500217
Pressure 30.05 in
Visibility 10.0 miles
Clouds Mostly Cloudy 8000 ft
Overcast 25000 ft
Heat Index 84 °F
Dew Point 71 °F
Humidity 74%
Rainfall 0.00 in
Snow Depth Not available.
UV 0 out of 12
Pollen 10.60 out of 12
Air Quality Not available.
Flu Activity Not available.
METAR KDCA 020452Z 00000KT 10SM BKN080 OVC250 26/23 A3005 RMK AO2 SLP175 T02610228 403500217

10-Day Weather Forecast

×

Almanac

Astronomy

Sep. 02, 2015 Rise Set
Actual Time
Civil Twilight
Nautical Twilight
Astronomical Twilight
Moon
Length of Visible Light
Length of Day
Tomorrow will be .
, % of the Moon is Illuminated

Today's Extremes

State Highs State Lows

Community

WunderPhotos

Upload Photos

1,851,709 photos uploaded!

WunderBlogs® & News

Nearby

Air Quality

  Air Quality AQ Index Pollutant
Not available.

Snow Depth

Station Depth Elevation

Earthquake Activity

City Distance Mag. Time & Date
Minimum magnitude displayed is 2.5.

Coastal Water Temperatures

Place Temperature

Stations

Nearby Weather Stations

Station Location Temp. Windchill Dew Point Humidity Wind Precip. Elev Updated Type